createdAt,value
2023-03-05T00:01:02.065Z,99599.56
2023-03-05T00:04:31.158Z,99595.73
2023-03-05T00:08:00.739Z,99596.05
2023-03-05T00:11:30.516Z,99598.27
2023-03-05T00:14:59.289Z,99602.03
2023-03-05T00:18:28.000Z,99602.36
2023-03-05T00:22:02.924Z,99619.74
2023-03-05T00:25:32.617Z,99628.36
2023-03-05T00:29:01.311Z,99637.20
2023-03-05T00:32:30.399Z,99642.05
2023-03-05T00:35:59.671Z,99644.27
2023-03-05T00:39:28.850Z,99643.09
2023-03-05T00:42:52.357Z,99643.80
2023-03-05T00:46:21.451Z,99638.17
2023-03-05T00:49:50.151Z,99633.04
2023-03-05T00:53:19.250Z,99631.81
2023-03-05T00:56:48.504Z,99633.38
2023-03-05T01:00:10.898Z,99637.30
2023-03-05T01:03:40.280Z,99635.02
2023-03-05T01:07:10.088Z,99634.29
2023-03-05T01:10:39.252Z,99633.91
2023-03-05T01:14:08.549Z,99638.58
2023-03-05T01:17:37.748Z,99652.66
2023-03-05T01:21:06.694Z,99661.92
2023-03-05T01:24:35.691Z,99672.45
2023-03-05T01:28:05.352Z,99672.65
2023-03-05T01:31:37.357Z,99682.48
2023-03-05T01:35:06.606Z,99684.70
2023-03-05T01:38:35.487Z,99698.83
2023-03-05T01:42:04.655Z,99705.70
2023-03-05T01:45:43.160Z,99706.71
2023-03-05T01:49:11.928Z,99706.85
2023-03-05T01:52:47.183Z,99719.61
2023-03-05T01:56:17.138Z,99725.63
2023-03-05T01:59:48.999Z,99728.56
2023-03-05T02:03:18.631Z,99730.13
2023-03-05T02:06:47.935Z,99736.32
2023-03-05T02:10:17.104Z,99737.13
2023-03-05T02:13:40.564Z,99741.21
2023-03-05T02:17:10.023Z,99744.94
2023-03-05T02:20:47.921Z,99757.09
2023-03-05T02:24:16.968Z,99772.70
2023-03-05T02:27:36.205Z,99771.44
2023-03-05T02:31:05.600Z,99778.45
2023-03-05T02:34:34.768Z,99783.97
2023-03-05T02:37:57.375Z,99790.50
2023-03-05T02:41:26.985Z,99792.37
2023-03-05T02:44:56.473Z,99797.83
2023-03-05T02:48:25.482Z,99803.64
2023-03-05T02:51:47.636Z,99807.41
2023-03-05T02:55:16.753Z,99804.48
2023-03-05T02:58:45.633Z,99814.65
2023-03-05T03:02:14.386Z,99826.33
2023-03-05T03:05:43.365Z,99829.77
2023-03-05T03:09:12.785Z,99836.13
2023-03-05T03:12:42.221Z,99851.29
2023-03-05T03:16:11.478Z,99854.76
2023-03-05T03:19:41.728Z,99866.11
2023-03-05T03:23:10.694Z,99872.14
2023-03-05T03:26:40.318Z,99878.20
2023-03-05T03:30:09.585Z,99896.50
2023-03-05T03:33:39.079Z,99911.73
2023-03-05T03:37:08.411Z,99927.42
2023-03-05T03:40:37.822Z,99950.13
2023-03-05T03:44:06.981Z,99960.37
2023-03-05T03:47:36.284Z,99968.35
2023-03-05T03:51:05.438Z,99969.91
2023-03-05T03:54:34.637Z,99967.23
2023-03-05T03:58:03.713Z,99968.65
2023-03-05T04:01:25.709Z,99966.86
2023-03-05T04:04:55.307Z,99969.84
2023-03-05T04:08:24.402Z,99974.58
2023-03-05T04:11:53.058Z,99976.59
2023-03-05T04:15:22.197Z,99975.17
2023-03-05T04:18:50.856Z,99973.44
2023-03-05T04:22:20.065Z,99973.20
2023-03-05T04:25:49.230Z,99969.69
2023-03-05T04:29:17.942Z,99977.91
2023-03-05T04:32:49.494Z,99978.20
2023-03-05T04:36:18.659Z,99979.31
2023-03-05T04:39:48.158Z,99982.92
2023-03-05T04:43:17.570Z,99990.14
2023-03-05T04:46:27.557Z,99998.86
2023-03-05T04:49:56.981Z,100004.52
2023-03-05T04:53:26.449Z,100008.99
2023-03-05T04:56:48.418Z,100011.46
2023-03-05T05:00:11.219Z,100012.77
2023-03-05T05:03:40.413Z,100013.72
2023-03-05T05:07:09.220Z,100016.34
2023-03-05T05:11:17.641Z,100022.86
2023-03-05T05:14:28.758Z,100029.92
2023-03-05T05:18:02.437Z,100040.33
2023-03-05T05:21:31.897Z,100047.83
2023-03-05T05:25:01.263Z,100051.76
2023-03-05T05:28:30.424Z,100059.42
2023-03-05T05:31:59.627Z,100067.19
2023-03-05T05:35:28.852Z,100067.59
2023-03-05T05:38:58.502Z,100071.23
2023-03-05T05:42:27.644Z,100074.91
2023-03-05T05:45:56.769Z,100074.34
2023-03-05T05:49:26.524Z,100075.86
2023-03-05T05:52:55.718Z,100074.20
2023-03-05T05:56:26.482Z,100078.10
2023-03-05T05:59:56.445Z,100075.48
2023-03-05T06:03:25.874Z,100078.36
2023-03-05T06:07:25.513Z,100078.99
2023-03-05T06:10:44.148Z,100077.59
2023-03-05T06:14:05.473Z,100080.25
2023-03-05T06:17:34.902Z,100088.02
2023-03-05T06:21:04.354Z,100093.32
2023-03-05T06:24:24.081Z,100095.52
2023-03-05T06:27:53.201Z,100100.59
2023-03-05T06:31:22.222Z,100105.33
2023-03-05T06:34:51.099Z,100110.21
2023-03-05T06:38:20.476Z,100117.50
2023-03-05T06:41:49.922Z,100118.39
2023-03-05T06:45:22.030Z,100119.77
2023-03-05T06:48:52.902Z,100121.35
2023-03-05T06:52:22.632Z,100124.35
2023-03-05T06:55:51.861Z,100125.56
2023-03-05T06:59:20.836Z,100127.30
2023-03-05T07:02:50.192Z,100128.09
2023-03-05T07:06:22.475Z,100130.63
2023-03-05T07:09:51.522Z,100134.55
2023-03-05T07:13:05.768Z,100140.36
2023-03-05T07:16:35.251Z,100141.09
2023-03-05T07:20:05.479Z,100145.23
2023-03-05T07:23:34.932Z,100152.16
2023-03-05T07:27:07.426Z,100150.52
2023-03-05T07:30:36.624Z,100148.46
2023-03-05T07:34:06.038Z,100151.08
2023-03-05T07:37:35.557Z,100148.81
2023-03-05T07:41:04.749Z,100150.90
2023-03-05T07:44:33.839Z,100152.99
2023-03-05T07:47:55.103Z,100153.47
2023-03-05T07:51:24.208Z,100155.83
2023-03-05T07:54:46.636Z,100157.44
2023-03-05T07:58:15.730Z,100160.79
2023-03-05T08:01:44.958Z,100164.59
2023-03-05T08:05:14.722Z,100167.70
2023-03-05T08:08:52.649Z,100172.17
2023-03-05T08:12:21.714Z,100174.42
2023-03-05T08:15:51.482Z,100175.52
2023-03-05T08:19:20.694Z,100178.00
2023-03-05T08:22:49.742Z,100180.62
2023-03-05T08:26:18.977Z,100190.31
2023-03-05T08:29:47.605Z,100194.71
2023-03-05T08:33:16.669Z,100195.94
2023-03-05T08:36:45.796Z,100199.17
2023-03-05T08:40:14.991Z,100200.90
2023-03-05T08:43:44.026Z,100206.67
2023-03-05T08:47:13.335Z,100210.16
2023-03-05T08:50:42.749Z,100219.20
2023-03-05T08:54:11.860Z,100217.42
2023-03-05T08:57:33.886Z,100225.46
2023-03-05T09:01:03.233Z,100230.29
2023-03-05T09:04:22.265Z,100232.02
2023-03-05T09:07:51.529Z,100239.95
2023-03-05T09:11:20.659Z,100239.98
2023-03-05T09:14:50.067Z,100243.64
2023-03-05T09:18:19.243Z,100247.02
2023-03-05T09:21:48.584Z,100250.08
2023-03-05T09:25:17.834Z,100250.73
2023-03-05T09:28:46.875Z,100255.04
2023-03-05T09:32:16.408Z,100255.39
2023-03-05T09:35:45.944Z,100259.66
2023-03-05T09:39:15.665Z,100259.80
2023-03-05T09:42:57.458Z,100260.11
2023-03-05T09:46:41.779Z,100257.58
2023-03-05T09:50:12.458Z,100254.31
2023-03-05T09:53:57.077Z,100254.48
2023-03-05T09:57:25.865Z,100257.36
2023-03-05T10:00:54.142Z,100256.33
2023-03-05T10:04:47.604Z,100254.36
2023-03-05T10:08:16.316Z,100250.52
2023-03-05T10:11:47.549Z,100248.70
2023-03-05T10:15:16.994Z,100259.16
2023-03-05T10:19:00.531Z,100257.85
2023-03-05T10:22:34.997Z,100256.87
2023-03-05T10:26:08.125Z,100260.48
2023-03-05T10:29:36.848Z,100256.94
2023-03-05T10:33:06.135Z,100254.63
2023-03-05T10:36:46.018Z,100255.42
2023-03-05T10:40:27.279Z,100253.50
2023-03-05T10:44:09.030Z,100254.38
2023-03-05T10:47:37.821Z,100259.13
2023-03-05T10:50:59.874Z,100257.40
2023-03-05T10:54:38.031Z,100255.70
2023-03-05T10:58:12.958Z,100254.73
2023-03-05T11:01:44.412Z,100259.77
2023-03-05T11:05:28.730Z,100262.23
2023-03-05T11:09:06.246Z,100262.09
2023-03-05T11:12:43.836Z,100260.09
2023-03-05T11:16:13.035Z,100260.98
2023-03-05T11:19:41.240Z,100265.31
2023-03-05T11:23:10.161Z,100265.81
2023-03-05T11:26:39.732Z,100267.23
2023-03-05T11:30:08.776Z,100268.52
2023-03-05T11:33:52.713Z,100266.41
2023-03-05T11:37:34.208Z,100263.96
2023-03-05T11:41:14.857Z,100265.85
2023-03-05T11:44:43.869Z,100265.98
2023-03-05T11:48:25.166Z,100265.46
2023-03-05T11:51:56.998Z,100268.23
2023-03-05T11:55:32.356Z,100272.39
2023-03-05T11:59:12.317Z,100277.48
2023-03-05T12:02:44.424Z,100282.43
2023-03-05T12:06:13.208Z,100280.21
2023-03-05T12:09:42.455Z,100281.55
2023-03-05T12:13:11.548Z,100283.80
2023-03-05T12:16:49.313Z,100279.16
2023-03-05T12:20:26.624Z,100275.88
2023-03-05T12:23:55.652Z,100280.77
2023-03-05T12:27:35.481Z,100288.19
2023-03-05T12:31:16.328Z,100293.56
2023-03-05T12:34:51.298Z,100288.38
2023-03-05T12:38:27.022Z,100284.91
2023-03-05T12:42:04.917Z,100288.30
2023-03-05T12:45:51.534Z,100290.96
2023-03-05T12:49:23.582Z,100288.27
2023-03-05T12:52:52.267Z,100291.35
2023-03-05T12:56:33.967Z,100294.60
2023-03-05T13:00:03.037Z,100292.40
2023-03-05T13:03:35.047Z,100295.79
2023-03-05T13:07:06.983Z,100297.24
2023-03-05T13:10:38.566Z,100297.89
2023-03-05T13:14:07.824Z,100303.52
2023-03-05T13:17:39.949Z,100311.42
2023-03-05T13:21:07.224Z,100313.11
2023-03-05T13:24:39.196Z,100318.62
2023-03-05T13:28:11.738Z,100324.55
2023-03-05T13:31:41.387Z,100325.83
2023-03-05T13:35:54.837Z,100328.56
2023-03-05T13:39:06.135Z,100332.03
2023-03-05T13:42:37.691Z,100335.55
2023-03-05T13:46:07.056Z,100332.99
2023-03-05T13:49:35.873Z,100328.38
2023-03-05T13:53:07.521Z,100326.45
2023-03-05T13:56:36.865Z,100326.34
2023-03-05T14:00:06.276Z,100329.06
2023-03-05T14:03:35.027Z,100330.73
2023-03-05T14:07:02.384Z,100332.89
2023-03-05T14:10:33.906Z,100333.55
2023-03-05T14:14:02.530Z,100332.94
2023-03-05T14:17:31.356Z,100333.85
2023-03-05T14:21:12.006Z,100331.48
2023-03-05T14:24:47.019Z,100326.38
2023-03-05T14:28:18.646Z,100329.44
2023-03-05T14:31:53.526Z,100328.77
2023-03-05T14:35:22.989Z,100339.63
2023-03-05T14:38:36.218Z,100344.31
2023-03-05T14:42:20.787Z,100348.30
2023-03-05T14:45:53.111Z,100341.28
2023-03-05T14:49:22.431Z,100342.02
2023-03-05T14:52:51.181Z,100354.67
2023-03-05T14:56:19.218Z,100352.52
2023-03-05T14:59:48.413Z,100350.56
2023-03-05T15:03:20.796Z,100348.52
2023-03-05T15:06:50.438Z,100348.69
2023-03-05T15:10:10.435Z,100353.17
2023-03-05T15:13:38.514Z,100357.02
2023-03-05T15:17:07.802Z,100364.64
2023-03-05T15:20:36.973Z,100368.28
2023-03-05T15:24:06.232Z,100371.70
2023-03-05T15:27:33.663Z,100378.96
2023-03-05T15:31:02.925Z,100380.88
2023-03-05T15:34:32.190Z,100384.44
2023-03-05T15:38:01.367Z,100390.23
2023-03-05T15:41:30.242Z,100397.16
2023-03-05T15:44:59.054Z,100397.06
2023-03-05T15:48:28.394Z,100400.19
2023-03-05T15:51:57.776Z,100403.44
2023-03-05T15:55:26.544Z,100408.00
2023-03-05T15:58:48.152Z,100412.50
2023-03-05T16:02:15.383Z,100415.16
2023-03-05T16:05:44.315Z,100423.09
2023-03-05T16:09:13.387Z,100429.56
2023-03-05T16:12:42.742Z,100431.77
2023-03-05T16:16:42.340Z,100441.24
2023-03-05T16:20:01.370Z,100448.68
2023-03-05T16:23:30.292Z,100449.66
2023-03-05T16:26:59.124Z,100447.55
2023-03-05T16:30:28.506Z,100451.00
2023-03-05T16:34:00.266Z,100455.57
2023-03-05T16:37:29.454Z,100456.09
2023-03-05T16:41:07.691Z,100462.52
2023-03-05T16:44:37.085Z,100465.54
2023-03-05T16:48:06.213Z,100461.71
2023-03-05T16:51:35.197Z,100459.42
2023-03-05T16:55:04.082Z,100460.67
2023-03-05T16:58:32.378Z,100464.21
2023-03-05T17:02:01.141Z,100466.90
2023-03-05T17:05:30.236Z,100467.27
2023-03-05T17:08:59.554Z,100467.80
2023-03-05T17:12:28.687Z,100471.50
2023-03-05T17:15:57.867Z,100475.38
2023-03-05T17:19:26.804Z,100476.90
2023-03-05T17:22:56.383Z,100479.14
2023-03-05T17:26:25.450Z,100479.71
2023-03-05T17:29:54.285Z,100480.95
2023-03-05T17:33:24.004Z,100486.49
2023-03-05T17:36:56.691Z,100488.92
2023-03-05T17:40:25.625Z,100487.49
2023-03-05T17:43:47.376Z,100489.73
2023-03-05T17:47:16.040Z,100491.33
2023-03-05T17:50:45.307Z,100494.68
2023-03-05T17:54:14.278Z,100496.45
2023-03-05T17:57:43.365Z,100495.10
2023-03-05T18:01:15.677Z,100493.08
2023-03-05T18:04:45.254Z,100489.40
2023-03-05T18:08:14.472Z,100490.20
2023-03-05T18:11:44.278Z,100491.30
2023-03-05T18:15:13.213Z,100488.59
2023-03-05T18:18:42.490Z,100488.12
2023-03-05T18:22:12.097Z,100488.68
2023-03-05T18:25:41.704Z,100488.88
2023-03-05T18:29:13.972Z,100485.61
2023-03-05T18:32:43.220Z,100484.39
2023-03-05T18:36:12.886Z,100486.45
2023-03-05T18:39:41.646Z,100487.08
2023-03-05T18:43:10.772Z,100488.89
2023-03-05T18:46:40.163Z,100485.23
2023-03-05T18:50:09.585Z,100486.55
2023-03-05T18:53:38.401Z,100489.27
2023-03-05T18:57:07.468Z,100482.35
2023-03-05T19:00:36.389Z,100484.36
2023-03-05T19:04:05.066Z,100483.84
2023-03-05T19:07:33.936Z,100481.94
2023-03-05T19:11:03.386Z,100478.43
2023-03-05T19:14:35.523Z,100480.59
2023-03-05T19:18:03.341Z,100480.34
2023-03-05T19:21:35.316Z,100480.46
2023-03-05T19:25:04.586Z,100480.14
2023-03-05T19:28:33.692Z,100482.97
2023-03-05T19:32:03.245Z,100489.90
2023-03-05T19:35:32.359Z,100496.35
2023-03-05T19:38:54.412Z,100499.98
2023-03-05T19:42:23.648Z,100503.56
2023-03-05T19:45:52.589Z,100505.52
2023-03-05T19:49:21.674Z,100506.69
2023-03-05T19:52:54.508Z,100507.83
2023-03-05T19:56:23.664Z,100509.83
2023-03-05T19:59:52.587Z,100513.90
2023-03-05T20:03:42.720Z,100511.04
2023-03-05T20:06:52.319Z,100511.77
2023-03-05T20:10:23.411Z,100506.81
2023-03-05T20:13:54.863Z,100506.25
2023-03-05T20:17:20.097Z,100507.77
2023-03-05T20:20:48.972Z,100501.80
2023-03-05T20:24:18.280Z,100500.73
2023-03-05T20:27:46.977Z,100495.86
2023-03-05T20:30:49.186Z,100494.24
2023-03-05T20:34:17.869Z,100493.02
2023-03-05T20:37:46.869Z,100493.20
2023-03-05T20:41:16.123Z,100493.52
2023-03-05T20:44:45.112Z,100491.91
2023-03-05T20:48:15.826Z,100491.52
2023-03-05T20:51:53.943Z,100494.14
2023-03-05T20:55:23.468Z,100491.73
2023-03-05T20:58:54.821Z,100488.52
2023-03-05T21:02:23.906Z,100486.45
2023-03-05T21:05:53.201Z,100487.64
2023-03-05T21:09:22.192Z,100487.89
2023-03-05T21:12:50.914Z,100486.09
2023-03-05T21:16:20.082Z,100490.80
2023-03-05T21:19:42.025Z,100493.91
2023-03-05T21:23:10.839Z,100496.49
2023-03-05T21:26:42.805Z,100497.80
2023-03-05T21:30:11.612Z,100498.26
2023-03-05T21:33:40.356Z,100494.92
2023-03-05T21:37:09.027Z,100497.63
2023-03-05T21:40:37.745Z,100495.33
2023-03-05T21:44:06.573Z,100495.76
2023-03-05T21:47:35.619Z,100495.27
2023-03-05T21:51:04.410Z,100492.24
2023-03-05T21:54:33.270Z,100491.46
2023-03-05T21:58:01.883Z,100490.23
2023-03-05T22:01:31.208Z,100491.60
2023-03-05T22:05:00.388Z,100498.89
2023-03-05T22:08:29.666Z,100499.62
2023-03-05T22:11:58.934Z,100497.95
2023-03-05T22:15:28.136Z,100502.85
2023-03-05T22:18:57.168Z,100507.76
2023-03-05T22:22:26.210Z,100507.11
2023-03-05T22:25:55.807Z,100507.77
2023-03-05T22:29:25.400Z,100511.92
2023-03-05T22:32:54.101Z,100516.27
2023-03-05T22:36:22.882Z,100512.88
2023-03-05T22:39:54.662Z,100519.89
2023-03-05T22:43:24.304Z,100523.48
2023-03-05T22:46:59.607Z,100528.58
2023-03-05T22:50:28.527Z,100532.13
2023-03-05T22:53:58.326Z,100535.29
2023-03-05T22:57:27.583Z,100539.52
2023-03-05T23:00:41.855Z,100543.55
2023-03-05T23:04:14.163Z,100547.21
2023-03-05T23:07:43.595Z,100547.90
2023-03-05T23:11:13.469Z,100548.24
2023-03-05T23:14:42.666Z,100547.56
2023-03-05T23:18:12.134Z,100544.48
2023-03-05T23:21:40.900Z,100547.58
2023-03-05T23:25:09.968Z,100548.79
2023-03-05T23:28:39.169Z,100554.83
2023-03-05T23:32:07.973Z,100552.16
2023-03-05T23:35:37.483Z,100557.17
2023-03-05T23:39:07.697Z,100557.71
2023-03-05T23:42:37.009Z,100558.32
2023-03-05T23:46:06.130Z,100558.92
2023-03-05T23:49:35.352Z,100560.46
2023-03-05T23:53:04.509Z,100561.28
2023-03-05T23:56:32.766Z,100563.89
2023-03-05T23:59:55.343Z,100561.52
